Time;durP1;ratioP1;P1;durP2;ratioP2;P2;SDS_P1;SDS_P2;PMS_P1;PMS_P2;Temp;Humidity;BMP_temperature;BMP_pressure;BME280_temperature;BME280_humidity;BME280_pressure;Samples;Min_cycle;Max_cycle;Signal;HPM_P1;HPM_P2
2022/08/14 00:00:38;;;;;;;8.10;6.63;;;24.20;48.50;;;;;;5114041;28;20028;-73
2022/08/14 00:03:04;;;;;;;7.70;6.00;;;24.10;48.40;;;;;;5113858;28;20050;-73
2022/08/14 00:05:30;;;;;;;16.95;6.57;;;24.10;49.00;;;;;;5113544;28;20135;-73
2022/08/14 00:07:56;;;;;;;8.85;6.28;;;24.10;49.30;;;;;;5113860;28;20024;-73
2022/08/14 00:10:22;;;;;;;7.93;6.18;;;24.10;48.70;;;;;;5113729;28;20032;-73
2022/08/14 00:12:51;;;;;;;8.32;6.55;;;24.00;48.40;;;;;;5113681;28;20050;-73
2022/08/14 00:15:27;;;;;;;8.13;6.45;;;24.00;48.80;;;;;;5113660;28;20030;-73
2022/08/14 00:17:53;;;;;;;8.50;6.90;;;23.90;49.10;;;;;;5113713;28;20028;-73
2022/08/14 00:20:23;;;;;;;10.35;7.00;;;23.80;49.50;;;;;;5113638;28;20055;-73
2022/08/14 00:22:48;;;;;;;9.75;7.00;;;23.90;50.30;;;;;;5113609;28;20084;-73
2022/08/14 00:25:14;;;;;;;8.13;6.97;;;24.00;49.50;;;;;;5113503;28;20058;-73
2022/08/14 00:27:39;;;;;;;9.32;7.03;;;24.00;49.30;;;;;;5113658;28;20035;-72
2022/08/14 00:30:08;;;;;;;12.88;7.32;;;23.90;49.10;;;;;;5113432;28;20092;-73
2022/08/14 00:32:34;;;;;;;8.88;6.78;;;23.90;49.60;;;;;;5112381;28;20036;-73
2022/08/14 00:35:01;;;;;;;8.80;6.97;;;23.90;49.70;;;;;;5113488;28;20025;-73
2022/08/14 00:37:28;;;;;;;11.27;7.80;;;23.90;51.00;;;;;;5113419;28;20031;-73
2022/08/14 00:39:54;;;;;;;14.32;7.28;;;23.90;50.20;;;;;;5114833;28;20048;-73
2022/08/14 00:42:20;;;;;;;8.63;7.53;;;23.90;50.20;;;;;;5117639;28;20027;-73
2022/08/14 00:44:46;;;;;;;12.25;7.25;;;23.90;50.20;;;;;;5117511;28;20024;-73
2022/08/14 00:47:14;;;;;;;10.15;7.28;;;23.90;49.70;;;;;;5117524;28;20020;-73
2022/08/14 00:49:40;;;;;;;16.20;7.65;;;23.80;49.70;;;;;;5117500;28;20027;-73
2022/08/14 00:52:06;;;;;;;10.18;7.07;;;23.90;49.30;;;;;;5117460;28;20024;-73
2022/08/14 00:54:33;;;;;;;8.85;6.78;;;23.90;49.40;;;;;;5117432;28;20039;-73
2022/08/14 00:56:58;;;;;;;11.80;7.22;;;23.90;49.70;;;;;;5117366;28;20092;-73
2022/08/14 00:59:26;;;;;;;11.73;6.90;;;23.90;49.60;;;;;;5117315;28;20032;-73
2022/08/14 01:01:56;;;;;;;10.68;7.47;;;23.80;49.60;;;;;;5117341;28;20042;-73
2022/08/14 01:04:22;;;;;;;10.73;7.30;;;23.90;49.70;;;;;;5117147;28;20036;-73
2022/08/14 01:06:50;;;;;;;13.25;7.60;;;23.90;49.40;;;;;;5117016;28;20519;-73
2022/08/14 01:09:21;;;;;;;10.27;7.63;;;23.80;49.60;;;;;;5117140;28;20040;-73
2022/08/14 01:11:51;;;;;;;8.63;6.70;;;23.80;49.70;;;;;;5117285;28;20020;-73
2022/08/14 01:14:18;;;;;;;9.57;7.40;;;23.80;49.90;;;;;;5117073;28;20083;-73
2022/08/14 01:16:45;;;;;;;8.88;7.05;;;23.80;49.60;;;;;;5116982;28;20027;-73
2022/08/14 01:21:55;;;;;;;10.15;7.32;;;23.80;50.20;;;;;;5117174;28;20031;-73
2022/08/14 01:24:22;;;;;;;9.85;7.78;;;23.80;50.10;;;;;;5116777;28;20024;-73
2022/08/14 01:26:48;;;;;;;9.80;6.82;;;23.70;50.10;;;;;;5116818;28;20028;-73
2022/08/14 01:29:14;;;;;;;10.95;7.32;;;23.70;50.30;;;;;;5116679;28;20016;-73
2022/08/14 01:31:50;;;;;;;11.68;7.13;;;23.70;50.20;;;;;;5116694;28;20054;-73
2022/08/14 01:34:16;;;;;;;9.57;7.00;;;23.60;50.10;;;;;;5116766;28;20103;-73
2022/08/14 01:36:42;;;;;;;9.65;7.07;;;23.60;50.20;;;;;;5116615;28;20028;-73
2022/08/14 01:39:13;;;;;;;9.77;7.32;;;23.60;51.20;;;;;;5116568;28;20085;-73
2022/08/14 01:41:59;;;;;;;10.87;7.63;;;23.50;50.20;;;;;;5116537;28;20061;-73
2022/08/14 01:44:28;;;;;;;11.88;7.35;;;23.50;50.60;;;;;;5116424;28;20274;-73
2022/08/14 01:46:57;;;;;;;9.13;7.20;;;23.50;50.70;;;;;;5116438;28;20020;-73
2022/08/14 01:49:24;;;;;;;9.07;7.40;;;23.50;50.60;;;;;;5116383;28;20046;-73
2022/08/14 01:51:55;;;;;;;10.82;6.85;;;23.50;50.90;;;;;;5116243;28;20099;-73
2022/08/14 01:54:22;;;;;;;12.98;7.72;;;23.40;51.00;;;;;;5116472;28;20043;-73
2022/08/14 01:56:55;;;;;;;11.98;7.53;;;23.40;50.90;;;;;;5116250;28;20028;-73
2022/08/14 01:59:33;;;;;;;9.77;7.35;;;23.50;51.20;;;;;;5116219;28;20403;-73
2022/08/14 02:02:11;;;;;;;10.88;7.70;;;23.50;51.50;;;;;;5116132;28;20016;-73
2022/08/14 02:04:37;;;;;;;11.70;7.70;;;23.40;51.00;;;;;;5116086;28;20031;-73
2022/08/14 02:07:05;;;;;;;10.38;7.93;;;23.30;51.30;;;;;;5114876;28;20181;-73
2022/08/14 02:09:36;;;;;;;11.55;8.00;;;23.30;51.10;;;;;;5115042;28;20066;-73
2022/08/14 02:12:03;;;;;;;11.00;7.78;;;23.30;51.50;;;;;;5116176;28;20026;-73
2022/08/14 02:14:30;;;;;;;9.75;8.02;;;23.30;51.50;;;;;;5115887;28;20028;-73
2022/08/14 02:16:56;;;;;;;11.88;8.48;;;23.40;51.40;;;;;;5115871;28;20107;-73
2022/08/14 02:19:25;;;;;;;10.35;8.05;;;23.30;51.50;;;;;;5115812;28;20038;-73
2022/08/14 02:21:56;;;;;;;11.18;8.02;;;23.30;51.50;;;;;;5115747;28;20044;-73
2022/08/14 02:24:24;;;;;;;11.02;8.43;;;23.30;51.50;;;;;;5115636;28;20020;-73
2022/08/14 02:26:51;;;;;;;10.55;8.02;;;23.30;51.60;;;;;;5115655;28;20024;-73
2022/08/14 02:29:23;;;;;;;9.88;8.48;;;23.30;52.10;;;;;;5115540;28;20012;-73
2022/08/14 02:31:51;;;;;;;10.25;8.45;;;23.10;52.30;;;;;;5115746;28;20024;-73
2022/08/14 02:34:24;;;;;;;12.55;8.43;;;23.10;52.70;;;;;;5115511;28;20016;-73
2022/08/14 02:36:52;;;;;;;9.98;8.10;;;23.00;53.00;;;;;;5115613;28;20030;-73
2022/08/14 02:39:18;;;;;;;13.05;8.63;;;23.00;52.80;;;;;;5115412;28;20038;-73
2022/08/14 02:41:45;;;;;;;11.32;8.30;;;22.90;52.60;;;;;;5115384;28;20073;-73
2022/08/14 02:44:11;;;;;;;10.38;8.02;;;22.90;52.10;;;;;;5115228;28;20092;-73
2022/08/14 02:46:37;;;;;;;11.27;8.20;;;22.90;52.20;;;;;;5115268;28;20029;-73
2022/08/14 02:49:05;;;;;;;10.65;8.00;;;22.90;52.40;;;;;;5115216;28;20023;-73
2022/08/14 02:51:34;;;;;;;10.50;8.25;;;22.90;53.00;;;;;;5115180;28;20016;-73
2022/08/14 02:54:01;;;;;;;10.88;8.05;;;22.90;53.10;;;;;;5115026;28;20029;-73
2022/08/14 02:56:26;;;;;;;12.43;9.18;;;22.90;53.20;;;;;;5115097;28;20051;-73
2022/08/14 02:58:55;;;;;;;13.57;8.93;;;22.80;53.30;;;;;;5115055;28;20020;-73
2022/08/14 03:01:23;;;;;;;11.70;8.85;;;22.80;53.30;;;;;;5115093;28;20098;-73
2022/08/14 03:03:50;;;;;;;13.75;8.52;;;22.80;53.10;;;;;;5114334;28;20024;-73
2022/08/14 03:06:25;;;;;;;13.25;8.90;;;22.80;53.00;;;;;;5114642;28;20104;-73
2022/08/14 03:08:52;;;;;;;12.80;8.38;;;22.80;53.20;;;;;;5114873;28;20032;-73
2022/08/14 03:11:18;;;;;;;12.95;8.50;;;22.70;53.20;;;;;;5114787;28;20039;-73
2022/08/14 03:13:50;;;;;;;14.02;8.55;;;22.70;53.40;;;;;;5114748;28;20020;-73
2022/08/14 03:16:25;;;;;;;10.23;8.65;;;22.70;53.90;;;;;;5114754;28;20031;-73
2022/08/14 03:18:57;;;;;;;11.75;8.63;;;22.70;54.00;;;;;;5114662;28;20050;-73
2022/08/14 03:21:23;;;;;;;11.85;8.52;;;22.60;53.40;;;;;;5114665;28;20099;-73
2022/08/14 03:23:55;;;;;;;11.05;8.57;;;22.70;53.40;;;;;;5114509;28;20054;-73
2022/08/14 03:26:26;;;;;;;12.38;8.70;;;22.70;53.40;;;;;;5114499;28;20016;-73
2022/08/14 03:28:52;;;;;;;10.95;8.82;;;22.70;53.50;;;;;;5114408;28;20040;-73
2022/08/14 03:31:22;;;;;;;11.15;8.88;;;22.60;53.50;;;;;;5114405;28;20028;-73
2022/08/14 03:33:49;;;;;;;12.35;8.70;;;22.60;53.40;;;;;;5114546;28;20031;-73
2022/08/14 03:36:18;;;;;;;13.77;9.23;;;22.50;53.90;;;;;;5114305;28;20024;-73
2022/08/14 03:38:46;;;;;;;11.80;8.73;;;22.40;54.20;;;;;;5114277;28;20027;-73
2022/08/14 03:41:15;;;;;;;14.77;9.02;;;22.40;54.20;;;;;;5114214;28;20054;-73
2022/08/14 03:43:45;;;;;;;11.38;9.00;;;22.40;54.20;;;;;;5114197;28;20020;-73
2022/08/14 03:46:12;;;;;;;11.48;9.45;;;22.40;54.20;;;;;;5114246;28;20028;-73
2022/08/14 03:48:40;;;;;;;12.57;9.00;;;22.40;54.10;;;;;;5114085;28;20166;-73
2022/08/14 03:51:07;;;;;;;13.35;9.43;;;22.40;54.20;;;;;;5114136;28;20032;-73
2022/08/14 03:53:38;;;;;;;14.13;9.88;;;22.30;54.70;;;;;;5114008;28;20047;-73
2022/08/14 03:56:11;;;;;;;13.70;9.50;;;22.20;54.90;;;;;;5114191;28;20027;-73
2022/08/14 03:58:38;;;;;;;16.02;10.13;;;22.10;55.80;;;;;;5113974;28;20036;-73
2022/08/14 04:01:04;;;;;;;14.77;9.32;;;22.00;56.10;;;;;;5113902;28;20020;-73
2022/08/14 04:03:30;;;;;;;13.88;10.07;;;22.00;56.10;;;;;;5113875;28;20031;-73
2022/08/14 04:05:56;;;;;;;14.15;9.85;;;22.00;55.90;;;;;;5113625;28;20052;-73
2022/08/14 04:08:21;;;;;;;14.43;9.52;;;22.10;55.60;;;;;;5113780;28;20024;-73
2022/08/14 04:10:47;;;;;;;12.27;9.00;;;22.10;55.70;;;;;;5113774;28;20020;-73
2022/08/14 04:13:17;;;;;;;13.15;9.48;;;22.10;55.50;;;;;;5113714;28;20016;-73
2022/08/14 04:15:44;;;;;;;12.32;9.02;;;22.10;55.20;;;;;;5112922;28;20051;-73
2022/08/14 04:18:10;;;;;;;14.52;9.68;;;22.10;55.20;;;;;;5113653;28;20020;-73
2022/08/14 04:20:38;;;;;;;14.73;9.43;;;22.00;55.40;;;;;;5113663;28;20023;-73
2022/08/14 04:23:05;;;;;;;13.60;9.68;;;21.80;56.10;;;;;;5113652;28;20028;-73
2022/08/14 04:25:35;;;;;;;13.55;9.75;;;21.70;56.40;;;;;;5113510;28;20053;-73
2022/08/14 04:28:05;;;;;;;14.85;9.65;;;21.70;57.20;;;;;;5113594;28;20103;-73
2022/08/14 04:30:32;;;;;;;11.45;8.70;;;21.50;57.70;;;;;;5113569;28;20071;-73
2022/08/14 04:32:58;;;;;;;12.45;9.40;;;21.40;57.70;;;;;;5113557;28;20069;-73
2022/08/14 04:35:24;;;;;;;14.13;9.98;;;21.40;58.00;;;;;;5113477;28;20028;-73
2022/08/14 04:43:37;;;;;;;14.45;10.55;;;21.40;58.10;;;;;;5113525;28;20092;-73
2022/08/14 04:46:14;;;;;;;16.75;10.88;;;21.50;57.70;;;;;;5113337;28;20043;-73
2022/08/14 04:48:40;;;;;;;14.25;10.20;;;21.50;57.70;;;;;;5113403;28;20020;-73
2022/08/14 04:51:08;;;;;;;18.50;10.55;;;21.50;57.70;;;;;;5113344;28;20054;-73
2022/08/14 04:53:36;;;;;;;15.35;10.10;;;21.60;57.50;;;;;;5113327;28;20016;-73
2022/08/14 04:56:04;;;;;;;12.88;9.57;;;21.60;57.60;;;;;;5113309;28;20024;-73
2022/08/14 04:58:31;;;;;;;13.73;10.27;;;21.60;57.80;;;;;;5113245;28;20043;-73
2022/08/14 05:00:58;;;;;;;15.48;10.80;;;21.70;58.20;;;;;;5113257;28;20028;-73
2022/08/14 05:03:30;;;;;;;15.18;10.60;;;21.70;57.90;;;;;;5113265;28;20028;-73
2022/08/14 05:05:58;;;;;;;14.65;10.45;;;21.70;58.80;;;;;;5113038;28;20187;-73
2022/08/14 05:08:24;;;;;;;13.75;10.00;;;21.60;58.10;;;;;;5113177;28;20016;-73
2022/08/14 05:10:53;;;;;;;15.40;9.82;;;21.60;58.30;;;;;;5113191;28;20072;-73
2022/08/14 05:13:20;;;;;;;15.02;10.00;;;21.50;58.70;;;;;;5113190;28;20035;-73
2022/08/14 05:15:46;;;;;;;12.82;9.63;;;21.50;59.70;;;;;;5113256;28;20028;-73
2022/08/14 05:18:14;;;;;;;14.73;9.10;;;21.50;59.50;;;;;;5113125;28;20046;-73
2022/08/14 05:20:42;;;;;;;14.13;10.32;;;21.50;59.50;;;;;;5113058;28;20039;-73
2022/08/14 05:23:09;;;;;;;14.85;9.90;;;21.50;59.60;;;;;;5113046;28;20027;-73
2022/08/14 05:25:36;;;;;;;12.68;9.43;;;21.50;59.60;;;;;;5113713;28;20079;-73
2022/08/14 05:28:18;;;;;;;16.67;9.88;;;21.60;59.70;;;;;;5116878;28;20103;-73
2022/08/14 05:30:51;;;;;;;18.42;10.02;;;21.60;59.30;;;;;;5116826;28;20024;-73
2022/08/14 05:33:19;;;;;;;13.13;9.60;;;21.70;59.30;;;;;;5116746;28;20080;-73
2022/08/14 05:35:46;;;;;;;14.52;9.88;;;21.70;59.40;;;;;;5116681;28;20024;-73
2022/08/14 05:38:15;;;;;;;15.93;9.38;;;21.70;60.20;;;;;;5116646;28;20032;-73
2022/08/14 05:40:45;;;;;;;11.43;8.98;;;21.80;59.10;;;;;;5116596;28;20076;-73
2022/08/14 05:43:12;;;;;;;14.48;9.38;;;21.90;58.90;;;;;;5116600;28;20042;-73
2022/08/14 05:45:38;;;;;;;13.02;9.45;;;21.90;59.40;;;;;;5116385;28;20028;-73
2022/08/14 05:48:05;;;;;;;12.38;9.00;;;21.90;59.20;;;;;;5116457;28;20016;-73
2022/08/14 05:50:32;;;;;;;14.98;9.95;;;21.80;59.60;;;;;;5116371;28;20054;-73
2022/08/14 05:52:58;;;;;;;13.27;9.50;;;21.90;59.20;;;;;;5116295;28;20028;-73
2022/08/14 05:55:24;;;;;;;12.55;9.30;;;21.90;59.90;;;;;;5116147;28;20039;-73
2022/08/14 05:57:53;;;;;;;12.38;9.68;;;21.90;59.90;;;;;;5116243;28;20049;-73
2022/08/14 06:00:22;;;;;;;12.48;9.05;;;21.90;59.90;;;;;;5116178;28;20046;-73
2022/08/14 06:02:47;;;;;;;12.63;9.48;;;21.90;59.60;;;;;;5116142;28;20024;-73
2022/08/14 06:05:13;;;;;;;16.85;10.02;;;22.00;59.90;;;;;;5115947;28;20032;-73
2022/08/14 06:07:39;;;;;;;13.43;9.30;;;22.00;59.60;;;;;;5116096;28;20024;-73
2022/08/14 06:10:07;;;;;;;14.43;10.48;;;22.10;59.80;;;;;;5115982;28;20039;-73
2022/08/14 06:12:33;;;;;;;12.77;9.80;;;22.20;59.90;;;;;;5115989;28;20459;-73
2022/08/14 06:14:59;;;;;;;16.23;10.35;;;22.20;60.30;;;;;;5115885;28;20031;-73
2022/08/14 06:17:26;;;;;;;13.57;10.30;;;22.20;60.00;;;;;;5115880;28;20032;-73
2022/08/14 06:19:51;;;;;;;12.80;9.45;;;22.20;60.20;;;;;;5115844;28;20076;-73
2022/08/14 06:22:17;;;;;;;15.65;9.43;;;22.20;60.10;;;;;;5115806;28;20039;-73
2022/08/14 06:24:43;;;;;;;12.07;9.55;;;22.30;60.10;;;;;;5115674;28;20050;-73
2022/08/14 06:27:09;;;;;;;13.10;9.00;;;22.40;60.10;;;;;;5115683;28;20024;-73
2022/08/14 06:29:36;;;;;;;13.63;10.13;;;22.40;59.70;;;;;;5115603;28;20035;-73
2022/08/14 06:32:02;;;;;;;12.35;9.20;;;22.40;59.80;;;;;;5115603;28;20024;-73
2022/08/14 06:34:28;;;;;;;11.60;8.77;;;22.50;59.80;;;;;;5115557;28;20032;-73
2022/08/14 06:36:55;;;;;;;11.95;8.70;;;22.50;59.60;;;;;;5114968;28;20474;-73
2022/08/14 06:39:22;;;;;;;11.88;9.15;;;22.60;59.60;;;;;;5115365;28;20028;-73
2022/08/14 06:41:48;;;;;;;13.55;9.32;;;22.70;59.60;;;;;;5115390;28;20032;-73
2022/08/14 06:44:13;;;;;;;16.50;9.95;;;22.70;59.70;;;;;;5115253;28;20039;-73
2022/08/14 06:46:40;;;;;;;18.08;9.43;;;22.70;59.70;;;;;;5115291;28;20021;-73
2022/08/14 06:49:06;;;;;;;14.25;9.02;;;22.80;59.50;;;;;;5115234;28;20020;-73
2022/08/14 06:51:32;;;;;;;11.18;8.98;;;22.80;59.30;;;;;;5115331;28;20017;-73
2022/08/14 06:53:57;;;;;;;14.38;9.68;;;22.90;59.20;;;;;;5115167;28;20081;-73
2022/08/14 06:56:23;;;;;;;12.88;9.18;;;22.90;59.20;;;;;;5115090;28;20043;-73
2022/08/14 06:58:49;;;;;;;14.48;9.40;;;23.10;59.20;;;;;;5115065;28;20028;-73
2022/08/14 07:06:43;;;;;;;11.70;9.35;;;23.30;59.20;;;;;;5114981;28;20055;-73
2022/08/14 07:09:12;;;;;;;12.95;9.05;;;23.30;59.00;;;;;;5114841;28;20028;-73
2022/08/14 07:11:37;;;;;;;12.57;9.10;;;23.40;58.70;;;;;;5114943;28;20028;-73
2022/08/14 07:14:03;;;;;;;14.88;9.00;;;23.50;59.70;;;;;;5114750;28;20046;-73
2022/08/14 07:16:29;;;;;;;12.10;8.95;;;23.60;58.90;;;;;;5114727;28;20024;-73
2022/08/14 07:18:55;;;;;;;13.40;9.63;;;23.60;58.70;;;;;;5114707;28;20047;-73
2022/08/14 07:21:21;;;;;;;14.52;8.95;;;23.70;58.80;;;;;;5114597;28;20039;-73
2022/08/14 07:23:47;;;;;;;10.20;8.30;;;23.80;58.60;;;;;;5114519;28;20028;-73
2022/08/14 07:26:12;;;;;;;12.55;8.27;;;23.80;57.90;;;;;;5114454;28;20036;-73
2022/08/14 07:28:39;;;;;;;11.80;9.10;;;23.80;57.70;;;;;;5114422;28;20062;-73
2022/08/14 07:31:09;;;;;;;14.82;8.63;;;23.90;57.50;;;;;;5114437;28;20020;-73
2022/08/14 07:33:39;;;;;;;14.43;8.55;;;23.90;57.60;;;;;;5114400;28;20020;-73
2022/08/14 07:36:09;;;;;;;14.05;8.60;;;24.10;57.70;;;;;;5114353;28;20032;-73
2022/08/14 07:38:35;;;;;;;11.02;8.50;;;24.10;58.30;;;;;;5114296;28;20075;-73
2022/08/14 07:41:01;;;;;;;11.27;7.90;;;24.10;57.50;;;;;;5114288;28;20028;-73
2022/08/14 07:43:28;;;;;;;11.18;7.55;;;24.20;57.70;;;;;;5114226;28;20036;-73
2022/08/14 07:45:54;;;;;;;14.85;8.73;;;24.30;57.50;;;;;;5114098;28;20084;-73
2022/08/14 07:48:20;;;;;;;12.60;8.15;;;24.40;57.50;;;;;;5114015;28;20031;-73
2022/08/14 07:50:46;;;;;;;10.88;8.13;;;24.40;56.20;;;;;;5114060;28;20050;-73
2022/08/14 07:53:15;;;;;;;11.60;7.78;;;24.50;56.30;;;;;;5114077;28;20020;-73
2022/08/14 07:55:42;;;;;;;10.50;7.43;;;24.60;56.10;;;;;;5114015;28;20056;-73
2022/08/14 07:58:08;;;;;;;10.95;8.10;;;24.70;55.40;;;;;;5113916;28;20471;-73
2022/08/14 08:00:33;;;;;;;11.73;7.88;;;24.70;55.40;;;;;;5113926;28;20024;-73
2022/08/14 08:02:59;;;;;;;10.90;8.25;;;24.80;55.40;;;;;;5113876;28;20103;-73
2022/08/14 08:05:26;;;;;;;12.52;7.70;;;24.90;55.00;;;;;;5113586;28;20082;-73
2022/08/14 08:07:52;;;;;;;10.20;7.90;;;24.90;55.10;;;;;;5113983;28;20027;-73
2022/08/14 08:10:30;;;;;;;12.52;7.50;;;25.00;55.10;;;;;;5113799;28;20404;-73
2022/08/14 08:13:07;;;;;;;12.05;7.43;;;25.20;54.50;;;;;;5113928;28;20047;-73
2022/08/14 08:15:36;;;;;;;11.05;7.70;;;25.20;54.00;;;;;;5113904;28;20475;-73
2022/08/14 08:18:04;;;;;;;10.18;7.57;;;25.30;54.20;;;;;;5113639;28;20016;-73
2022/08/14 08:20:35;;;;;;;9.07;7.38;;;25.40;54.00;;;;;;5113661;28;20046;-73
2022/08/14 08:23:02;;;;;;;10.45;7.28;;;25.50;54.30;;;;;;5113630;28;20529;-73
2022/08/14 08:25:31;;;;;;;11.20;6.97;;;25.50;53.90;;;;;;5113525;28;20065;-73
2022/08/14 08:28:07;;;;;;;11.35;7.63;;;25.50;52.70;;;;;;5113545;28;20047;-73
2022/08/14 08:30:34;;;;;;;10.15;7.70;;;25.50;52.70;;;;;;5113712;28;20024;-73
2022/08/14 08:33:00;;;;;;;10.63;7.20;;;25.60;53.10;;;;;;5113515;28;20016;-72
2022/08/14 08:35:29;;;;;;;9.02;7.43;;;25.70;52.70;;;;;;5113497;28;20028;-73
2022/08/14 08:38:05;;;;;;;8.13;6.95;;;25.80;52.00;;;;;;5113497;28;20028;-73
2022/08/14 08:40:35;;;;;;;8.65;7.15;;;25.90;52.60;;;;;;5113477;28;20054;-73
2022/08/14 08:43:06;;;;;;;12.48;7.70;;;26.00;52.50;;;;;;5113458;28;20046;-72
2022/08/14 08:45:34;;;;;;;10.48;7.70;;;26.10;53.30;;;;;;5113495;28;20047;-73
2022/08/14 08:48:02;;;;;;;9.60;7.13;;;26.20;52.00;;;;;;5113365;28;20077;-73
2022/08/14 08:50:32;;;;;;;9.70;7.47;;;26.30;51.60;;;;;;5113390;28;20027;-73
2022/08/14 08:53:03;;;;;;;10.85;6.75;;;26.40;51.90;;;;;;5113392;28;20080;-73
2022/08/14 08:55:42;;;;;;;10.93;7.20;;;26.50;53.40;;;;;;5113371;28;20059;-73
2022/08/14 08:58:15;;;;;;;10.30;7.18;;;26.60;51.00;;;;;;5113349;28;20028;-73
2022/08/14 09:00:41;;;;;;;9.82;7.50;;;26.70;51.90;;;;;;5114238;28;20050;-73
2022/08/14 09:03:10;;;;;;;11.75;7.07;;;26.70;51.40;;;;;;5117311;28;20552;-73
2022/08/14 09:05:37;;;;;;;9.75;7.57;;;26.80;50.80;;;;;;5117041;28;20103;-73
2022/08/14 09:08:12;;;;;;;10.90;7.07;;;26.80;50.70;;;;;;5117197;28;20024;-72
2022/08/14 09:10:37;;;;;;;8.95;7.43;;;26.90;50.90;;;;;;5117188;28;20020;-73
2022/08/14 09:13:03;;;;;;;8.65;7.05;;;26.90;50.50;;;;;;5117139;28;20043;-73
2022/08/14 09:15:29;;;;;;;8.95;6.97;;;27.00;50.10;;;;;;5117097;28;20043;-73
2022/08/14 09:17:56;;;;;;;10.15;7.55;;;27.20;49.30;;;;;;5117021;28;20079;-73
2022/08/14 09:20:22;;;;;;;12.27;7.30;;;27.20;49.80;;;;;;5117027;28;20028;-72
2022/08/14 09:22:49;;;;;;;8.55;6.82;;;27.30;50.10;;;;;;5117093;28;20024;-73
2022/08/14 09:25:18;;;;;;;12.15;7.93;;;27.40;50.50;;;;;;5116841;28;20031;-73
2022/08/14 09:27:43;;;;;;;9.50;6.97;;;27.50;48.20;;;;;;5116878;28;20074;-73
2022/08/14 09:30:10;;;;;;;8.02;6.90;;;27.60;48.90;;;;;;5116723;28;20012;-72
2022/08/14 09:33:01;;;;;;;9.82;8.00;;;27.70;48.80;;;;;;5116746;28;20084;-72
2022/08/14 09:35:45;;;;;;;9.02;6.82;;;27.80;47.30;;;;;;5106714;28;20040;-73
2022/08/14 09:38:17;;;;;;;9.70;6.45;;;27.80;47.20;;;;;;5116667;28;20110;-72
2022/08/14 09:41:18;;;;;;;7.57;6.50;;;27.90;48.20;;;;;;5116634;28;20024;-72
2022/08/14 09:44:06;;;;;;;9.25;6.47;;;28.00;48.40;;;;;;5115555;28;20020;-72
2022/08/14 09:46:33;;;;;;;8.90;6.70;;;28.10;46.50;;;;;;5115426;28;20024;-72
2022/08/14 09:49:04;;;;;;;8.57;6.53;;;28.10;46.10;;;;;;5116527;28;20027;-72
2022/08/14 09:51:31;;;;;;;8.00;6.30;;;28.20;46.20;;;;;;5116411;28;20020;-73
2022/08/14 09:54:08;;;;;;;8.40;6.82;;;28.30;46.30;;;;;;5116371;28;20066;-72
2022/08/14 09:56:48;;;;;;;7.65;6.47;;;28.40;46.30;;;;;;5116353;28;20092;-72
2022/08/14 09:59:20;;;;;;;10.73;6.75;;;28.60;47.40;;;;;;5116264;28;20020;-72
2022/08/14 10:01:47;;;;;;;;;;;28.70;46.80;;;;;;5116699;28;20016;-72
2022/08/14 10:04:23;;;;;;;8.80;6.70;;;28.80;46.30;;;;;;5116075;28;19904;-72
2022/08/14 10:06:50;;;;;;;8.75;6.35;;;28.70;44.80;;;;;;5115997;28;20056;-72
2022/08/14 10:09:16;;;;;;;8.20;6.13;;;28.80;46.20;;;;;;5115123;28;20028;-72
2022/08/14 10:11:53;;;;;;;8.93;6.63;;;28.90;45.90;;;;;;5115221;28;20031;-72
2022/08/14 10:14:25;;;;;;;8.52;6.45;;;29.00;45.60;;;;;;5115831;28;20103;-72
2022/08/14 10:16:56;;;;;;;9.18;6.30;;;29.10;45.80;;;;;;5116142;28;20019;-72
2022/08/14 10:19:24;;;;;;;8.88;6.43;;;29.30;44.90;;;;;;5115979;28;20021;-72
2022/08/14 10:22:04;;;;;;;10.68;6.70;;;29.30;44.90;;;;;;5115837;28;20049;-72
2022/08/14 10:24:38;;;;;;;7.30;6.40;;;29.40;44.10;;;;;;5115747;28;20024;-72
2022/08/14 10:27:15;;;;;;;8.63;6.50;;;29.50;43.70;;;;;;5115759;28;20026;-72
2022/08/14 10:29:43;;;;;;;7.60;5.88;;;29.60;43.80;;;;;;5115646;28;20028;-72
2022/08/14 10:32:12;;;;;;;8.93;6.32;;;29.60;41.60;;;;;;5115598;28;20024;-72
2022/08/14 10:34:39;;;;;;;6.78;5.80;;;29.70;42.00;;;;;;5115561;28;20020;-72
2022/08/14 10:37:10;;;;;;;6.13;5.50;;;29.70;42.30;;;;;;5115525;28;20058;-72
2022/08/14 10:39:41;;;;;;;10.90;6.53;;;29.90;42.90;;;;;;5114532;28;20050;-72
2022/08/14 10:42:10;;;;;;;7.78;6.40;;;29.90;41.80;;;;;;5115504;28;20024;-72
2022/08/14 10:44:46;;;;;;;7.57;5.82;;;29.90;42.40;;;;;;5115319;28;20070;-72
2022/08/14 10:47:12;;;;;;;6.25;5.65;;;29.90;39.90;;;;;;5115323;28;20032;-72
2022/08/14 10:49:48;;;;;;;7.20;5.80;;;30.00;40.30;;;;;;5115274;28;20111;-73
2022/08/14 10:52:24;;;;;;;6.50;5.40;;;30.10;39.70;;;;;;5115400;28;20046;-72
2022/08/14 10:54:50;;;;;;;7.20;5.45;;;30.00;39.80;;;;;;5115169;28;20028;-73
2022/08/14 10:57:18;;;;;;;5.85;5.25;;;30.10;40.50;;;;;;5115119;28;20020;-72
2022/08/14 10:59:56;;;;;;;5.82;5.22;;;30.20;39.60;;;;;;5115081;28;20076;-72
2022/08/14 11:02:28;;;;;;;7.63;5.20;;;30.30;39.50;;;;;;5115188;28;20464;-73
2022/08/14 11:04:59;;;;;;;13.05;5.63;;;30.30;39.60;;;;;;5114886;28;20020;-73
2022/08/14 11:07:25;;;;;;;6.43;5.22;;;30.40;40.40;;;;;;5114737;28;20048;-72
2022/08/14 11:09:56;;;;;;;8.25;5.10;;;30.60;39.70;;;;;;5114891;28;20023;-72
2022/08/14 11:12:22;;;;;;;9.38;6.13;;;30.70;39.30;;;;;;5114820;28;20039;-72
2022/08/14 11:15:00;;;;;;;6.78;5.85;;;30.70;38.60;;;;;;5114793;28;20020;-72
2022/08/14 11:17:27;;;;;;;6.93;5.30;;;30.60;37.90;;;;;;5114735;28;20038;-72
2022/08/14 11:19:57;;;;;;;6.63;5.13;;;30.60;38.60;;;;;;5114724;28;20095;-72
2022/08/14 11:22:27;;;;;;;6.72;4.85;;;30.70;38.50;;;;;;5114717;28;20057;-72
2022/08/14 11:24:55;;;;;;;6.00;4.88;;;30.70;37.90;;;;;;5114057;28;20024;-72
2022/08/14 11:27:24;;;;;;;5.70;4.97;;;30.70;35.90;;;;;;5114547;28;20149;-72
2022/08/14 11:29:51;;;;;;;5.30;4.25;;;30.60;35.60;;;;;;5114474;28;20348;-72
2022/08/14 11:32:18;;;;;;;8.25;4.75;;;30.60;34.10;;;;;;5114483;28;20526;-72
2022/08/14 11:34:45;;;;;;;6.03;4.28;;;30.70;34.60;;;;;;5114420;28;20020;-72
2022/08/14 11:37:11;;;;;;;6.65;4.93;;;30.80;35.50;;;;;;5114351;28;20468;-72
2022/08/14 11:39:37;;;;;;;7.05;5.38;;;30.80;35.40;;;;;;5114335;28;20032;-73
2022/08/14 11:42:07;;;;;;;6.18;4.95;;;30.90;36.00;;;;;;5114298;28;20035;-72
2022/08/14 11:44:32;;;;;;;5.63;4.63;;;31.00;35.30;;;;;;5114184;28;20057;-72
2022/08/14 11:47:00;;;;;;;6.93;5.20;;;31.10;36.30;;;;;;5114204;28;20024;-73
2022/08/14 11:49:29;;;;;;;8.77;5.03;;;31.20;35.00;;;;;;5114155;28;20021;-72
2022/08/14 11:51:55;;;;;;;6.13;4.90;;;31.10;34.70;;;;;;5114143;28;20044;-72
2022/08/14 11:54:22;;;;;;;4.82;4.30;;;31.00;35.10;;;;;;5114163;28;20028;-72
2022/08/14 11:56:51;;;;;;;7.00;5.13;;;31.00;33.80;;;;;;5113889;28;20087;-72
2022/08/14 11:59:20;;;;;;;7.80;5.40;;;31.10;34.60;;;;;;5112983;28;20020;-72
2022/08/14 12:01:45;;;;;;;6.40;5.10;;;31.10;33.60;;;;;;5113968;28;20020;-72
2022/08/14 12:04:17;;;;;;;5.82;4.90;;;31.20;34.20;;;;;;5113946;28;20027;-72
2022/08/14 12:06:44;;;;;;;;;;;31.20;34.90;;;;;;5114126;28;20048;-72
2022/08/14 12:09:10;;;;;;;7.07;5.72;;;31.10;35.40;;;;;;5113881;28;19926;-72
2022/08/14 12:11:40;;;;;;;6.53;4.85;;;30.80;33.90;;;;;;5113824;28;20024;-72
2022/08/14 12:14:07;;;;;;;7.38;5.15;;;30.90;34.70;;;;;;5113798;28;20020;-72
2022/08/14 12:16:34;;;;;;;8.20;5.88;;;31.00;35.00;;;;;;5112764;28;20032;-72
2022/08/14 12:19:00;;;;;;;5.55;5.05;;;31.00;34.20;;;;;;5113697;28;20024;-72
2022/08/14 12:21:26;;;;;;;5.95;5.30;;;30.90;35.40;;;;;;5113665;28;20104;-72
2022/08/14 12:24:05;;;;;;;7.40;5.20;;;30.80;35.60;;;;;;5113654;28;20031;-72
2022/08/14 12:26:31;;;;;;;6.63;5.00;;;30.80;35.70;;;;;;5113565;28;20087;-72
2022/08/14 12:29:14;;;;;;;5.82;5.05;;;30.80;35.90;;;;;;5113501;28;20020;-72
2022/08/14 12:31:42;;;;;;;6.60;4.72;;;31.00;35.00;;;;;;5113730;28;20076;-72
2022/08/14 12:34:10;;;;;;;6.30;5.40;;;31.20;34.20;;;;;;5112548;28;20019;-72
2022/08/14 12:36:37;;;;;;;5.90;5.30;;;31.20;34.90;;;;;;5112735;28;20031;-72
2022/08/14 12:39:22;;;;;;;6.05;5.07;;;31.20;32.90;;;;;;5113466;28;20035;-72
2022/08/14 12:41:55;;;;;;;5.93;4.97;;;31.20;33.10;;;;;;5113487;28;20038;-72
2022/08/14 12:44:37;;;;;;;7.25;5.00;;;31.10;33.70;;;;;;5112362;28;20030;-72
2022/08/14 12:47:14;;;;;;;7.82;5.00;;;31.20;34.60;;;;;;5113432;28;20475;-72
2022/08/14 12:49:51;;;;;;;6.13;4.82;;;31.40;34.30;;;;;;5112494;28;20020;-72
2022/08/14 12:52:28;;;;;;;5.82;4.65;;;31.70;34.30;;;;;;5112417;28;20024;-72
2022/08/14 12:54:58;;;;;;;7.32;4.90;;;31.90;33.30;;;;;;5113377;28;20016;-72
2022/08/14 12:57:41;;;;;;;7.47;4.97;;;32.00;33.00;;;;;;5113296;28;20050;-72
2022/08/14 13:00:22;;;;;;;5.25;4.75;;;32.10;32.60;;;;;;5113348;28;20066;-72
2022/08/14 13:02:50;;;;;;;7.10;4.65;;;31.90;32.10;;;;;;5113291;28;20039;-72